Time;durP1;ratioP1;P1;durP2;ratioP2;P2;SDS_P1;SDS_P2;PMS_P1;PMS_P2;Temp;Humidity;BMP_temperature;BMP_pressure;BME280_temperature;BME280_humidity;BME280_pressure;Samples;Min_cycle;Max_cycle;Signal;HPM_P1;HPM_P2
2022/10/09 00:01:31;;;;;;;3.90;1.30;;;;;;;8.82;92.48;101341.81;5020414;28;20227;-80
2022/10/09 00:03:59;;;;;;;2.73;1.50;;;;;;;8.74;92.47;101336.59;5021178;28;20709;-79
2022/10/09 00:06:27;;;;;;;4.03;2.80;;;;;;;8.77;92.71;101329.66;5021017;28;20210;-79
2022/10/09 00:08:54;;;;;;;3.57;1.33;;;;;;;8.73;92.86;101334.84;5021204;28;20242;-79
2022/10/09 00:11:23;;;;;;;2.87;1.70;;;;;;;8.76;92.76;101334.00;5020370;28;20729;-79
2022/10/09 00:13:50;;;;;;;3.87;1.50;;;;;;;8.71;92.65;101336.56;5020786;28;20206;-80
2022/10/09 00:16:20;;;;;;;5.47;1.70;;;;;;;8.72;92.39;101338.31;5021264;28;20206;-80
2022/10/09 00:18:47;;;;;;;4.03;1.57;;;;;;;8.69;92.86;101340.91;5020847;28;20701;-79
2022/10/09 00:21:21;;;;;;;3.83;1.63;;;;;;;8.74;92.51;101348.72;5020185;28;20256;-79
2022/10/09 00:23:49;;;;;;;3.13;1.40;;;;;;;8.72;92.74;101350.44;5020669;28;20204;-79
2022/10/09 00:26:15;;;;;;;6.37;1.60;;;;;;;8.66;93.24;101334.81;5020300;28;20705;-80
2022/10/09 00:28:42;;;;;;;4.17;1.40;;;;;;;8.58;94.23;101308.75;5020637;28;20607;-81
2022/10/09 00:31:10;;;;;;;1.70;1.50;;;;;;;8.55;94.03;101298.34;5020156;28;20231;-79
2022/10/09 00:33:38;;;;;;;5.23;1.90;;;;;;;8.62;94.81;101287.09;5020601;28;20221;-80
2022/10/09 00:36:05;;;;;;;4.73;1.60;;;;;;;8.62;95.23;101281.91;5020703;28;20204;-79
2022/10/09 00:38:33;;;;;;;4.90;1.70;;;;;;;8.66;94.56;101287.94;5020838;28;20199;-79
2022/10/09 00:41:00;;;;;;;6.63;1.53;;;;;;;8.64;94.06;101293.19;5020056;28;20231;-80
2022/10/09 00:43:44;;;;;;;3.30;2.23;;;;;;;8.65;94.19;101300.09;5019699;28;20222;-79
2022/10/09 00:46:24;;;;;;;8.87;1.90;;;;;;;8.68;93.84;101313.16;5020361;28;20728;-80
2022/10/09 00:48:59;;;;;;;3.27;1.63;;;;;;;8.66;94.05;101313.97;5020687;28;20238;-79
2022/10/09 00:51:27;;;;;;;7.93;1.80;;;;;;;8.62;94.12;101322.66;5020456;28;20234;-79
2022/10/09 00:53:53;;;;;;;2.60;1.50;;;;;;;8.61;94.40;101320.94;5020621;28;20212;-80
2022/10/09 00:56:20;;;;;;;3.90;1.73;;;;;;;8.62;94.25;101317.44;5020217;28;20231;-79
2022/10/09 00:58:52;;;;;;;2.87;1.50;;;;;;;8.65;93.82;101325.28;5020290;28;20199;-80
2022/10/09 01:01:18;;;;;;;3.83;1.90;;;;;;;8.67;93.21;101336.56;5020043;28;20234;-80
2022/10/09 01:03:45;;;;;;;2.60;1.63;;;;;;;8.64;93.71;101333.94;5020426;28;20207;-79
2022/10/09 01:06:17;;;;;;;2.00;1.20;;;;;;;8.65;93.29;101348.69;5020574;28;20261;-80
2022/10/09 01:08:50;;;;;;;4.00;1.57;;;;;;;8.67;93.22;101349.56;5020665;28;20231;-79
2022/10/09 01:11:27;;;;;;;4.13;1.70;;;;;;;8.63;93.30;101347.81;5020376;28;20225;-79
2022/10/09 01:14:01;;;;;;;4.87;1.57;;;;;;;8.62;93.61;101338.25;5020002;28;20207;-80
2022/10/09 01:16:31;;;;;;;3.87;1.70;;;;;;;8.64;93.93;101340.03;5019767;28;20207;-79
2022/10/09 01:19:05;;;;;;;7.93;1.77;;;;;;;8.59;93.82;101346.06;5020398;28;20555;-80
2022/10/09 01:21:41;;;;;;;1.70;1.37;;;;;;;8.61;93.98;101337.41;5019897;28;20333;-79
2022/10/09 01:24:21;;;;;;;3.93;1.70;;;;;;;8.62;93.78;101346.06;5019604;28;20233;-80
2022/10/09 01:27:09;;;;;;;1.90;1.30;;;;;;;8.58;93.67;101345.19;5020092;28;20595;-81
2022/10/09 01:29:40;;;;;;;3.90;1.70;;;;;;;8.60;93.41;101351.25;5020254;28;20235;-80
2022/10/09 01:32:09;;;;;;;5.37;1.57;;;;;;;8.58;93.69;101341.72;5019990;28;20213;-80
2022/10/09 01:34:38;;;;;;;3.40;1.63;;;;;;;8.53;93.57;101342.56;5019678;28;20669;-80
2022/10/09 01:37:07;;;;;;;5.70;2.03;;;;;;;8.55;93.91;101343.44;5019895;28;20202;-80
2022/10/09 01:39:35;;;;;;;6.20;1.40;;;;;;;8.54;94.00;101333.91;5019796;28;20230;-79
2022/10/09 01:42:02;;;;;;;3.23;1.40;;;;;;;8.56;93.92;101339.09;5020860;28;20197;-79
2022/10/09 01:44:32;;;;;;;6.47;1.90;;;;;;;8.51;93.34;101338.22;5019959;28;20604;-80
2022/10/09 01:47:00;;;;;;;4.50;1.47;;;;;;;8.49;94.17;101334.75;5019430;28;20215;-80
2022/10/09 01:49:39;;;;;;;3.03;1.33;;;;;;;8.48;94.17;101330.41;5019945;28;20231;-80
2022/10/09 01:52:18;;;;;;;4.70;2.13;;;;;;;8.52;94.29;101329.53;5019698;28;20216;-79
2022/10/09 01:54:58;;;;;;;2.57;1.40;;;;;;;8.53;94.02;101337.38;5019650;28;20207;-79
2022/10/09 01:57:32;;;;;;;3.57;1.40;;;;;;;8.51;94.07;101331.28;5019464;28;20589;-79
2022/10/09 02:00:03;;;;;;;4.10;1.50;;;;;;;8.48;93.88;101333.00;5018148;28;20235;-79
2022/10/09 02:02:30;;;;;;;6.73;1.47;;;;;;;8.51;94.27;101327.81;5019394;28;20211;-80
2022/10/09 02:04:57;;;;;;;2.60;1.60;;;;;;;8.51;94.08;101323.47;5019859;28;20214;-79
2022/10/09 02:07:25;;;;;;;8.27;2.50;;;;;;;8.53;94.31;101321.75;5019340;28;20207;-80
2022/10/09 02:09:53;;;;;;;4.47;1.37;;;;;;;8.53;94.73;101313.94;5019072;28;20226;-79
2022/10/09 02:12:21;;;;;;;4.53;1.50;;;;;;;8.55;95.08;101312.22;5019230;28;20206;-79
2022/10/09 02:14:48;;;;;;;4.83;1.77;;;;;;;8.54;94.61;101309.59;5018968;28;20214;-79
2022/10/09 02:17:20;;;;;;;4.73;1.50;;;;;;;8.61;94.69;101313.13;5019115;28;20211;-80
2022/10/09 02:19:49;;;;;;;3.17;1.40;;;;;;;8.63;94.56;101308.78;5019122;28;20226;-79
2022/10/09 02:22:20;;;;;;;3.53;1.70;;;;;;;8.59;94.35;101312.25;5018935;28;20211;-80
2022/10/09 02:24:47;;;;;;;5.00;1.47;;;;;;;8.57;94.67;101326.97;5019694;28;20563;-80
2022/10/09 02:27:14;;;;;;;3.33;1.50;;;;;;;8.58;94.20;101324.38;5019431;28;20580;-80
2022/10/09 02:29:43;;;;;;;2.67;1.37;;;;;;;8.56;94.15;101333.91;5019295;28;20235;-80
2022/10/09 02:32:10;;;;;;;5.70;1.57;;;;;;;8.52;93.77;101342.56;5018676;28;20233;-79
2022/10/09 02:34:38;;;;;;;3.97;1.30;;;;;;;8.50;94.18;101345.19;5018790;28;20685;-79
2022/10/09 02:37:05;;;;;;;7.03;2.43;;;;;;;8.50;93.34;101341.69;5018708;28;20209;-80
2022/10/09 02:39:32;;;;;;;4.33;1.20;;;;;;;8.50;93.65;101355.59;5018455;28;20219;-79
2022/10/09 02:41:59;;;;;;;4.30;1.40;;;;;;;8.54;93.90;101352.13;5018228;28;20207;-79
2022/10/09 02:44:26;;;;;;;5.10;2.03;;;;;;;8.50;93.75;101355.59;5019091;28;20209;-79
2022/10/09 02:46:52;;;;;;;4.30;1.50;;;;;;;8.51;94.04;101353.84;5019459;28;20213;-80
2022/10/09 02:49:19;;;;;;;6.27;1.40;;;;;;;8.55;93.71;101351.25;5019223;28;20230;-80
2022/10/09 02:51:46;;;;;;;3.40;1.40;;;;;;;8.51;93.33;101357.31;5019045;28;20214;-80
2022/10/09 02:54:13;;;;;;;5.83;1.40;;;;;;;8.51;93.28;101365.13;5018311;28;20219;-81
2022/10/09 02:56:39;;;;;;;2.10;1.40;;;;;;;8.50;93.18;101362.50;5019035;28;20211;-80
2022/10/09 02:59:06;;;;;;;5.17;1.50;;;;;;;8.47;93.31;101363.38;5018756;28;20199;-80
2022/10/09 03:01:32;;;;;;;4.70;1.90;;;;;;;8.48;93.05;101364.22;5017396;28;20210;-80
2022/10/09 03:03:59;;;;;;;4.53;2.03;;;;;;;8.50;92.97;101360.78;5018504;28;20216;-79
2022/10/09 03:06:28;;;;;;;5.33;1.40;;;;;;;8.44;93.85;101360.72;5019054;28;20206;-80
2022/10/09 03:08:56;;;;;;;4.50;1.40;;;;;;;8.45;93.05;101364.22;5018905;28;20227;-81
2022/10/09 03:11:24;;;;;;;2.60;1.13;;;;;;;8.42;93.75;101356.41;5017797;28;20238;-80
2022/10/09 03:13:51;;;;;;;3.73;1.30;;;;;;;8.40;93.42;101348.53;5018862;28;20211;-79
2022/10/09 03:16:19;;;;;;;4.13;1.60;;;;;;;8.43;93.89;101348.59;5019001;28;20202;-79
2022/10/09 03:18:47;;;;;;;5.30;1.83;;;;;;;8.40;94.59;101338.13;5018661;28;20214;-79
2022/10/09 03:21:16;;;;;;;9.37;2.17;;;;;;;8.43;94.67;101321.72;5018215;28;20227;-80
2022/10/09 03:23:43;;;;;;;1.80;1.27;;;;;;;8.42;94.04;101327.78;5018475;28;20203;-80
2022/10/09 03:26:13;;;;;;;4.60;1.83;;;;;;;8.37;94.02;101332.94;5019210;28;20203;-80
2022/10/09 03:28:41;;;;;;;8.33;1.83;;;;;;;8.39;94.55;101323.41;5018022;28;20262;-80
2022/10/09 03:31:07;;;;;;;4.90;1.70;;;;;;;8.37;93.61;101339.88;4977765;28;20237;-80
2022/10/09 03:33:34;;;;;;;3.30;1.50;;;;;;;8.35;93.89;101340.72;4978715;28;20206;-80
2022/10/09 03:36:01;;;;;;;4.50;1.60;;;;;;;8.33;94.19;101349.41;4979853;28;20212;-80
2022/10/09 03:38:28;;;;;;;4.20;1.40;;;;;;;8.38;93.84;101352.00;4979259;28;20209;-79
2022/10/09 03:40:54;;;;;;;2.37;1.30;;;;;;;8.40;93.26;101355.47;4978575;28;20248;-80
2022/10/09 03:43:22;;;;;;;3.43;1.60;;;;;;;8.39;92.79;101361.56;4979093;28;20215;-80
2022/10/09 03:45:48;;;;;;;5.13;1.70;;;;;;;8.37;92.86;101366.75;4979260;28;20208;-80
2022/10/09 03:48:15;;;;;;;3.57;1.53;;;;;;;8.37;93.44;101377.16;4979279;28;20219;-80
2022/10/09 03:50:42;;;;;;;5.77;1.40;;;;;;;8.35;92.79;101387.56;4979056;28;20619;-79
2022/10/09 03:53:10;;;;;;;3.60;1.30;;;;;;;8.33;92.74;101378.88;4979746;28;20217;-80
2022/10/09 03:55:37;;;;;;;5.77;1.87;;;;;;;8.34;92.64;101380.63;4979033;28;20215;-79
2022/10/09 03:58:03;;;;;;;3.97;1.33;;;;;;;8.27;93.47;101380.59;4979263;28;20213;-79
2022/10/09 04:00:32;;;;;;;4.80;2.17;;;;;;;8.21;93.45;101372.75;4978266;28;20236;-80
2022/10/09 04:02:58;;;;;;;3.27;1.93;;;;;;;8.27;93.19;101370.19;4979217;28;20709;-80
2022/10/09 04:05:25;;;;;;;5.07;1.90;;;;;;;8.25;93.43;101377.09;4979204;28;20215;-80
2022/10/09 04:07:51;;;;;;;2.83;1.53;;;;;;;8.26;92.73;101386.63;4978899;28;20219;-80
2022/10/09 04:10:18;;;;;;;2.03;1.40;;;;;;;8.25;93.07;101390.09;4978490;28;20231;-80
2022/10/09 04:12:44;;;;;;;4.70;1.40;;;;;;;8.27;92.78;101397.06;4979877;28;20238;-80
2022/10/09 04:15:11;;;;;;;3.97;1.50;;;;;;;8.26;92.78;101391.81;4979691;28;20205;-80
2022/10/09 04:17:38;;;;;;;4.37;1.63;;;;;;;8.22;93.77;101382.28;4978966;28;20212;-80
2022/10/09 04:20:05;;;;;;;2.93;1.30;;;;;;;8.24;93.43;101372.75;4979042;28;20225;-80
2022/10/09 04:22:32;;;;;;;3.83;2.17;;;;;;;8.21;93.79;101367.53;4979333;28;20212;-80
2022/10/09 04:24:58;;;;;;;10.43;2.17;;;;;;;8.23;93.40;101366.69;4982707;28;20216;-79
2022/10/09 04:27:25;;;;;;;2.07;1.50;;;;;;;8.25;93.93;101366.69;4982955;28;20208;-79
2022/10/09 04:29:51;;;;;;;2.57;1.20;;;;;;;8.27;93.30;101367.56;4981752;28;20233;-78
2022/10/09 04:32:18;;;;;;;4.30;1.60;;;;;;;8.24;93.27;101372.75;4982310;28;20209;-79
2022/10/09 04:34:46;;;;;;;2.67;1.60;;;;;;;8.23;93.42;101364.09;4982787;28;20207;-79
2022/10/09 04:37:12;;;;;;;3.50;1.70;;;;;;;8.21;93.20;101368.41;4982883;28;20220;-80
2022/10/09 04:39:38;;;;;;;14.70;1.70;;;;;;;8.17;93.89;101366.66;4981828;28;20243;-78
2022/10/09 04:42:05;;;;;;;3.07;1.67;;;;;;;8.19;93.81;101362.31;5036083;23;20238;-80
2022/10/09 04:44:32;;;;;;;4.73;1.87;;;;;;;8.22;93.41;101366.66;5022472;28;20210;-81
2022/10/09 04:46:58;;;;;;;4.03;1.30;;;;;;;8.18;93.84;101360.56;5022204;28;20214;-81
2022/10/09 04:49:25;;;;;;;2.80;1.07;;;;;;;8.15;93.68;101366.63;5021690;28;20233;-81
2022/10/09 04:51:52;;;;;;;2.57;1.63;;;;;;;8.14;95.26;101335.41;5021805;28;20227;-81
2022/10/09 04:54:19;;;;;;;3.13;1.60;;;;;;;8.12;94.93;101329.34;5021956;28;20214;-82
2022/10/09 04:56:45;;;;;;;8.77;1.73;;;;;;;8.14;94.57;101330.22;5021406;28;20203;-82
2022/10/09 04:59:12;;;;;;;7.13;2.00;;;;;;;8.10;94.58;101339.72;5021608;28;20211;-80
2022/10/09 05:01:38;;;;;;;4.60;1.60;;;;;;;8.10;93.86;101342.31;5021300;28;20306;-82
2022/10/09 05:04:05;;;;;;;4.63;1.67;;;;;;;8.11;94.05;101357.06;5022351;28;20207;-82
2022/10/09 05:06:31;;;;;;;2.70;1.70;;;;;;;8.14;94.30;101354.47;5022187;28;20211;-78
2022/10/09 05:08:59;;;;;;;7.33;1.70;;;;;;;8.13;93.79;101363.16;5021594;28;20231;-81
2022/10/09 05:11:26;;;;;;;5.37;1.80;;;;;;;8.11;93.73;101356.22;5021523;28;20249;-82
2022/10/09 05:13:54;;;;;;;6.90;1.30;;;;;;;8.09;94.07;101350.13;5021708;28;20213;-81
2022/10/09 05:16:23;;;;;;;2.07;1.40;;;;;;;8.10;93.21;101362.25;5021739;28;20210;-82
2022/10/09 05:18:52;;;;;;;3.77;2.10;;;;;;;8.09;92.47;101392.59;5021331;28;20203;-81
2022/10/09 05:21:19;;;;;;;3.53;2.00;;;;;;;7.95;91.67;101417.66;5021136;28;20210;-80
2022/10/09 05:23:47;;;;;;;3.10;2.13;;;;;;;7.89;90.71;101469.59;5021484;28;20203;-82
2022/10/09 05:26:17;;;;;;;2.90;1.60;;;;;;;7.75;89.71;101495.44;5022045;28;20206;-82
2022/10/09 05:28:45;;;;;;;9.00;2.17;;;;;;;7.73;89.95;101508.44;5021782;28;20203;-81
2022/10/09 05:31:21;;;;;;;4.83;1.90;;;;;;;7.63;88.87;101529.97;5021052;28;20724;-81
2022/10/09 05:33:48;;;;;;;3.87;2.30;;;;;;;7.59;89.10;101532.50;5021198;28;20204;-81
2022/10/09 05:36:15;;;;;;;2.83;1.83;;;;;;;7.63;89.92;101531.69;5020827;28;20210;-81
2022/10/09 05:38:41;;;;;;;2.07;1.87;;;;;;;7.55;89.43;101526.41;5020377;28;20210;-81
2022/10/09 05:41:11;;;;;;;6.60;2.00;;;;;;;7.41;89.73;101535.78;5019986;28;20199;-80
2022/10/09 05:43:40;;;;;;;4.50;1.90;;;;;;;7.35;89.64;101526.19;5022143;28;20210;-81
2022/10/09 05:46:09;;;;;;;3.43;2.00;;;;;;;7.23;90.64;101498.34;5020766;28;20210;-82
2022/10/09 05:48:35;;;;;;;5.73;1.97;;;;;;;7.22;90.82;101481.03;5021112;28;20218;-82
2022/10/09 05:51:07;;;;;;;3.50;2.10;;;;;;;7.25;91.73;101449.03;5020227;28;20226;-80
2022/10/09 05:53:33;;;;;;;2.07;1.87;;;;;;;7.17;91.32;101448.94;5021057;28;20229;-82
2022/10/09 05:56:09;;;;;;;5.03;2.03;;;;;;;7.16;89.94;101470.56;5020762;28;20619;-81
2022/10/09 05:58:36;;;;;;;3.63;2.00;;;;;;;7.16;90.01;101483.56;5020417;28;20206;-82
2022/10/09 06:01:04;;;;;;;5.07;2.23;;;;;;;7.13;89.71;101492.16;5020033;28;20203;-80
2022/10/09 06:03:30;;;;;;;4.00;1.97;;;;;;;7.18;90.24;101499.16;5020428;28;20358;-79
2022/10/09 06:05:59;;;;;;;3.73;2.00;;;;;;;7.09;90.27;101495.56;5020007;28;20207;-82
2022/10/09 06:08:26;;;;;;;6.40;2.20;;;;;;;7.09;90.72;101481.72;5020748;28;20599;-81
2022/10/09 06:10:52;;;;;;;7.27;2.93;;;;;;;7.23;91.39;101468.91;5019717;28;20242;-81
2022/10/09 06:13:19;;;;;;;4.20;2.00;;;;;;;7.32;91.55;101454.31;5020166;28;20238;-79
2022/10/09 06:15:51;;;;;;;3.10;1.90;;;;;;;7.41;91.93;101452.66;5020172;28;20210;-81
2022/10/09 06:18:19;;;;;;;3.60;2.13;;;;;;;7.29;92.12;101438.66;5028219;28;20211;-81
2022/10/09 06:20:53;;;;;;;9.40;2.53;;;;;;;7.20;93.11;101416.97;5038029;28;20198;-81
2022/10/09 06:23:20;;;;;;;3.17;1.80;;;;;;;7.24;92.24;101414.41;5038618;28;20272;-81
2022/10/09 06:25:51;;;;;;;6.03;2.00;;;;;;;7.27;92.81;101421.34;5039721;28;20205;-81
2022/10/09 06:28:17;;;;;;;4.70;2.10;;;;;;;7.22;92.47;101423.91;5038840;28;20202;-81
2022/10/09 06:30:44;;;;;;;4.00;2.10;;;;;;;7.21;92.79;101413.50;5039247;28;20214;-81
2022/10/09 06:33:10;;;;;;;4.07;2.50;;;;;;;7.24;93.64;101404.00;5040457;28;20559;-82
2022/10/09 06:35:38;;;;;;;3.77;2.00;;;;;;;7.36;92.68;101411.06;5040751;28;20204;-81
2022/10/09 06:38:05;;;;;;;3.50;2.40;;;;;;;7.35;93.00;101414.50;5040386;28;20198;-81
2022/10/09 06:40:34;;;;;;;4.63;2.40;;;;;;;7.39;93.41;101413.66;5042070;28;20197;-81
2022/10/09 06:43:00;;;;;;;3.23;2.10;;;;;;;7.46;93.15;101407.69;5041243;28;20238;-80
2022/10/09 06:45:27;;;;;;;3.27;1.73;;;;;;;7.52;92.71;101420.72;5036009;28;20208;-81
2022/10/09 06:47:53;;;;;;;3.43;1.80;;;;;;;7.59;93.70;101420.78;5041456;28;20213;-80
2022/10/09 06:50:20;;;;;;;3.23;2.23;;;;;;;7.56;93.27;101426.84;5041389;28;20217;-81
2022/10/09 06:52:47;;;;;;;5.77;2.17;;;;;;;7.62;93.61;101420.81;5041697;28;20218;-81
2022/10/09 06:55:14;;;;;;;4.77;2.50;;;;;;;7.67;93.30;101424.31;5042234;28;20199;-82
2022/10/09 06:57:41;;;;;;;6.53;2.20;;;;;;;7.67;93.17;101429.50;5040953;28;20205;-81
2022/10/09 07:00:08;;;;;;;5.27;2.13;;;;;;;7.71;93.76;101426.09;5035526;28;20202;-82
2022/10/09 07:02:36;;;;;;;3.47;2.40;;;;;;;7.73;93.21;101435.66;5041483;28;20227;-81
2022/10/09 07:05:02;;;;;;;3.53;2.77;;;;;;;7.65;94.05;101419.13;5041543;28;20202;-78
2022/10/09 07:07:29;;;;;;;4.43;2.90;;;;;;;7.46;94.84;101397.28;5041019;28;20198;-81
2022/10/09 07:09:58;;;;;;;3.50;2.80;;;;;;;7.43;95.42;101380.81;5041517;28;20298;-81
2022/10/09 07:12:25;;;;;;;5.77;3.50;;;;;;;7.28;96.11;101372.03;5041052;28;20228;-81
2022/10/09 07:14:51;;;;;;;5.60;3.63;;;;;;;6.83;97.90;101330.88;5041765;28;20282;-80
2022/10/09 07:17:18;;;;;;;6.47;3.70;;;;;;;6.69;98.82;101304.78;5040023;28;20209;-82
2022/10/09 07:19:44;;;;;;;4.20;3.60;;;;;;;6.85;99.62;101293.72;5038043;28;20191;-82
2022/10/09 07:22:10;;;;;;;4.50;4.10;;;;;;;6.98;99.68;101284.34;5038914;28;20226;-82
2022/10/09 07:24:37;;;;;;;4.47;3.97;;;;;;;7.11;98.94;101301.75;5039922;28;20191;-82
2022/10/09 07:27:05;;;;;;;5.30;3.70;;;;;;;7.18;98.43;101312.22;5039438;28;20198;-81
2022/10/09 07:29:31;;;;;;;6.70;3.57;;;;;;;7.33;99.19;101317.50;5039026;28;20225;-81
2022/10/09 07:31:57;;;;;;;6.10;4.00;;;;;;;7.34;98.99;101320.13;5039036;28;20226;-81
2022/10/09 07:34:24;;;;;;;8.03;6.30;;;;;;;7.45;99.08;101319.34;5039204;28;20198;-81
2022/10/09 07:36:50;;;;;;;10.57;7.90;;;;;;;7.50;98.98;101328.91;5038831;28;20206;-82
2022/10/09 07:39:18;;;;;;;13.40;8.03;;;;;;;7.52;99.47;101316.81;5038966;28;20209;-82
2022/10/09 07:41:46;;;;;;;15.63;9.70;;;;;;;7.67;99.69;101302.19;5038369;28;20293;-81
2022/10/09 07:44:14;;;;;;;10.00;8.23;;;;;;;7.72;100.00;101309.16;5039458;28;20268;-82
2022/10/09 07:46:40;;;;;;;9.10;7.50;;;;;;;7.83;100.00;101304.06;5039652;28;20205;-80
2022/10/09 07:49:07;;;;;;;10.23;9.03;;;;;;;7.93;100.00;101305.84;5037534;28;20198;-81
2022/10/09 07:51:33;;;;;;;10.57;8.80;;;;;;;7.99;100.00;101292.00;5038429;28;20233;-80
2022/10/09 07:54:01;;;;;;;9.60;8.00;;;;;;;8.10;100.00;101287.72;5039605;28;20201;-80
2022/10/09 07:56:30;;;;;;;8.43;5.60;;;;;;;8.25;100.00;101294.72;5038748;28;20198;-81
2022/10/09 07:58:58;;;;;;;8.17;5.70;;;;;;;8.33;100.00;101295.63;5036736;28;20216;-82
2022/10/09 08:01:28;;;;;;;6.43;5.00;;;;;;;8.43;100.00;101298.31;5039509;28;20218;-82
2022/10/09 08:03:55;;;;;;;6.17;4.93;;;;;;;8.47;100.00;101308.72;5040081;28;20214;-81
2022/10/09 08:06:22;;;;;;;7.00;5.30;;;;;;;8.55;100.00;101307.00;5039461;28;20206;-83
2022/10/09 08:08:49;;;;;;;7.10;5.50;;;;;;;8.54;100.00;101313.09;5035112;28;20586;-81
2022/10/09 08:11:17;;;;;;;6.20;5.70;;;;;;;8.67;100.00;101302.72;5039573;28;20642;-83
2022/10/09 08:13:45;;;;;;;8.13;5.83;;;;;;;8.70;100.00;101302.72;5040435;28;20218;-83
2022/10/09 08:16:12;;;;;;;9.50;8.23;;;;;;;8.67;100.00;101293.16;5040093;28;20739;-81
2022/10/09 08:18:40;;;;;;;13.13;11.83;;;;;;;8.75;100.00;101290.59;5039483;28;20203;-82
2022/10/09 08:21:08;;;;;;;12.63;10.97;;;;;;;8.81;100.00;101274.13;5039469;28;20198;-82
2022/10/09 08:23:35;;;;;;;15.20;12.23;;;;;;;8.80;100.00;101277.56;5040865;28;20194;-81
2022/10/09 08:26:01;;;;;;;14.20;12.00;;;;;;;8.85;100.00;101271.50;5040129;28;20202;-82
2022/10/09 08:28:28;;;;;;;10.67;9.63;;;;;;;8.82;100.00;101270.63;5039669;28;20202;-83
2022/10/09 08:30:54;;;;;;;12.73;8.47;;;;;;;8.89;100.00;101267.19;5040153;28;20229;-82
2022/10/09 08:33:22;;;;;;;10.03;8.37;;;;;;;9.01;100.00;101277.59;5039780;28;20223;-81
2022/10/09 08:35:50;;;;;;;9.60;7.43;;;;;;;9.06;100.00;101275.88;5039752;28;20213;-82
2022/10/09 08:38:17;;;;;;;7.27;6.53;;;;;;;9.14;100.00;101279.38;5040280;28;20285;-81
2022/10/09 08:40:52;;;;;;;6.93;6.17;;;;;;;9.21;100.00;101289.78;5040838;28;20202;-81
2022/10/09 08:43:28;;;;;;;7.97;5.77;;;;;;;9.14;100.00;101292.38;5040380;28;20244;-81
2022/10/09 08:45:56;;;;;;;10.27;6.37;;;;;;;9.16;100.00;101295.00;5040376;28;20251;-81
2022/10/09 08:48:25;;;;;;;9.57;6.83;;;;;;;9.20;100.00;101301.09;5040797;28;20214;-80
2022/10/09 08:50:57;;;;;;;6.37;5.87;;;;;;;9.26;100.00;101306.31;5040671;28;20233;-81
2022/10/09 08:53:33;;;;;;;7.00;6.30;;;;;;;9.37;100.00;101303.69;5040006;28;20223;-81
2022/10/09 08:56:04;;;;;;;9.83;5.80;;;;;;;9.41;100.00;101314.09;5040842;28;20202;-81
2022/10/09 08:58:32;;;;;;;7.93;5.93;;;;;;;9.46;100.00;101316.72;5040139;28;20758;-81
2022/10/09 09:01:04;;;;;;;6.67;5.50;;;;;;;9.51;100.00;101314.97;5040580;28;20206;-81
2022/10/09 09:03:47;;;;;;;7.03;5.70;;;;;;;9.63;100.00;101312.38;5041294;28;20209;-81
2022/10/09 09:06:22;;;;;;;7.63;5.50;;;;;;;9.78;100.00;101318.44;5041229;28;20206;-80
2022/10/09 09:08:55;;;;;;;6.87;5.50;;;;;;;9.89;100.00;101325.38;5040856;28;20676;-81
2022/10/09 09:11:31;;;;;;;7.57;5.00;;;;;;;10.01;100.00;101339.22;5040921;28;20708;-80
2022/10/09 09:14:08;;;;;;;6.07;4.47;;;;;;;10.08;100.00;101348.78;5040655;28;20202;-79
2022/10/09 09:16:43;;;;;;;7.70;4.50;;;;;;;10.10;100.00;101352.25;5025867;28;20207;-82
2022/10/09 09:19:29;;;;;;;8.03;3.80;;;;;;;10.18;100.00;101367.91;5020704;28;20207;-81
2022/10/09 09:21:58;;;;;;;6.93;4.00;;;;;;;10.26;100.00;101359.16;5020479;28;20280;-82
2022/10/09 09:24:43;;;;;;;6.53;4.13;;;;;;;10.23;100.00;101353.97;5019421;28;20221;-81
2022/10/09 09:27:13;;;;;;;5.90;3.50;;;;;;;10.45;100.00;101340.91;5020604;28;20214;-80
2022/10/09 09:29:44;;;;;;;6.57;4.30;;;;;;;10.59;100.00;101335.63;5020616;28;20211;-80
2022/10/09 09:32:17;;;;;;;6.70;3.60;;;;;;;10.51;100.00;101335.66;5019657;28;20300;-80
2022/10/09 09:34:44;;;;;;;5.47;2.63;;;;;;;10.60;100.00;101332.13;5021189;28;20206;-79
2022/10/09 09:37:13;;;;;;;6.00;2.80;;;;;;;10.62;100.00;101378.22;5020641;28;20268;-80
2022/10/09 09:39:40;;;;;;;7.90;3.73;;;;;;;10.95;100.00;101385.94;5020361;28;20212;-80
2022/10/09 09:42:15;;;;;;;5.07;2.87;;;;;;;11.07;97.93;101444.19;5019600;28;20231;-80
2022/10/09 09:44:49;;;;;;;5.23;1.50;;;;;;;11.02;95.38;101463.38;5020477;28;20264;-80
2022/10/09 09:47:22;;;;;;;6.40;2.17;;;;;;;11.11;95.88;101503.41;5020301;28;20204;-80
2022/10/09 09:49:57;;;;;;;7.27;1.87;;;;;;;11.18;89.64;101585.28;5022301;28;20211;-80
2022/10/09 09:52:28;;;;;;;3.47;1.10;;;;;;;11.43;88.48;101661.88;5011813;28;20222;-80
2022/10/09 09:54:57;;;;;;;3.37;1.20;;;;;;;11.63;82.44;101769.03;5011115;28;20211;-81
2022/10/09 09:57:32;;;;;;;4.77;1.40;;;;;;;11.85;78.07;101890.22;5009558;28;20568;-81
2022/10/09 10:00:20;;;;;;;6.47;2.00;;;;;;;12.02;79.24;101912.91;5009866;28;20225;-79
2022/10/09 10:02:46;;;;;;;7.37;1.47;;;;;;;12.14;80.65;101974.84;5032370;28;20222;-80
2022/10/09 10:05:24;;;;;;;3.03;1.03;;;;;;;12.22;83.25;101889.31;5040324;28;20201;-80
2022/10/09 10:07:52;;;;;;;3.50;1.20;;;;;;;12.09;79.61;101938.19;5032218;28;20210;-80
2022/10/09 10:10:21;;;;;;;4.17;1.60;;;;;;;12.14;82.27;101904.19;5010540;28;20561;-81
2022/10/09 10:12:54;;;;;;;4.53;1.20;;;;;;;12.18;80.35;101901.53;5009639;28;20227;-80
2022/10/09 10:15:24;;;;;;;4.10;1.10;;;;;;;12.23;77.83;101931.22;5000837;28;20209;-83
2022/10/09 10:17:58;;;;;;;5.13;1.43;;;;;;;12.25;77.36;102004.50;5008212;28;20704;-83
2022/10/09 10:20:24;;;;;;;7.67;1.30;;;;;;;12.30;77.10;102021.09;5001701;28;20701;-82
2022/10/09 10:22:54;;;;;;;5.10;1.00;;;;;;;12.35;73.92;102087.44;5001688;28;20234;-82
2022/10/09 10:25:24;;;;;;;5.47;1.20;;;;;;;12.31;80.35;101991.44;5001480;28;20723;-79
2022/10/09 10:27:56;;;;;;;3.87;1.30;;;;;;;12.31;77.04;101989.66;5000452;28;20215;-80
2022/10/09 10:30:22;;;;;;;4.30;1.07;;;;;;;12.39;76.62;102002.75;5000525;28;20218;-80
2022/10/09 10:32:56;;;;;;;2.63;1.30;;;;;;;12.39;78.53;101958.25;5001295;28;20232;-80
2022/10/09 10:35:26;;;;;;;3.53;1.53;;;;;;;12.36;78.70;101934.66;5002422;28;20215;-80
2022/10/09 10:37:59;;;;;;;4.67;1.50;;;;;;;12.36;78.31;101945.13;5009699;28;20212;-80
2022/10/09 10:40:30;;;;;;;3.23;1.00;;;;;;;12.35;81.57;101861.34;5006788;28;20734;-79
2022/10/09 10:43:07;;;;;;;3.50;1.23;;;;;;;12.32;78.88;101884.03;5002918;28;20303;-80
2022/10/09 10:45:39;;;;;;;3.50;1.20;;;;;;;12.40;78.11;101910.22;4997984;28;20207;-80
2022/10/09 10:48:10;;;;;;;4.43;1.27;;;;;;;12.50;79.98;101859.53;4996935;28;20213;-82
2022/10/09 10:50:45;;;;;;;4.10;1.63;;;;;;;12.61;80.38;101827.22;5005664;28;20592;-79
2022/10/09 10:53:21;;;;;;;4.87;1.50;;;;;;;12.58;81.11;101794.03;5011968;28;20248;-81
2022/10/09 10:55:53;;;;;;;6.83;1.67;;;;;;;12.58;76.52;101890.94;5010015;28;20206;-79
2022/10/09 10:58:26;;;;;;;2.13;1.07;;;;;;;12.69;75.05;101946.78;5006209;28;20205;-79
2022/10/09 11:01:21;;;;;;;6.40;2.07;;;;;;;12.73;77.71;101918.84;5007659;28;20205;-79
2022/10/09 11:04:10;;;;;;;2.27;1.20;;;;;;;12.77;78.15;101857.69;5014674;28;20745;-81
2022/10/09 11:06:44;;;;;;;5.00;1.20;;;;;;;12.80;73.24;101938.03;5016973;28;20216;-81
2022/10/09 11:09:18;;;;;;;6.83;1.07;;;;;;;12.93;71.32;102039.31;5016161;28;20704;-80
2022/10/09 11:11:52;;;;;;;4.30;1.30;;;;;;;13.01;74.39;101977.25;5016446;28;20235;-80
2022/10/09 11:14:34;;;;;;;4.20;1.43;;;;;;;13.05;73.52;102014.81;5016175;28;20208;-82
2022/10/09 11:17:10;;;;;;;3.13;1.27;;;;;;;13.07;73.65;102011.31;5015884;28;20212;-81
2022/10/09 11:19:51;;;;;;;5.07;1.43;;;;;;;13.02;72.20;102013.09;5004153;28;20204;-80
2022/10/09 11:22:42;;;;;;;2.90;1.13;;;;;;;13.02;73.72;101985.97;5004947;28;20217;-81
2022/10/09 11:25:26;;;;;;;2.27;1.07;;;;;;;13.08;70.22;102044.53;5006435;28;20201;-81
2022/10/09 11:27:57;;;;;;;3.07;1.03;;;;;;;13.16;72.18;102039.25;5007036;28;20213;-79
2022/10/09 11:30:27;;;;;;;2.13;0.90;;;;;;;13.22;72.33;101968.41;5005129;28;20210;-80
2022/10/09 11:32:59;;;;;;;3.87;1.03;;;;;;;13.19;74.79;101941.34;5005711;28;20702;-81
2022/10/09 11:35:30;;;;;;;4.00;0.93;;;;;;;13.29;73.90;101936.06;5007879;28;20205;-80
2022/10/09 11:38:01;;;;;;;5.30;0.90;;;;;;;13.50;71.03;101976.16;5009736;28;20200;-79
2022/10/09 11:40:32;;;;;;;2.53;0.80;;;;;;;13.85;66.84;102101.88;5006867;28;20226;-79